Pulaski, Mississippi
Current Conditions -  °F | °C
As of 4:54 PM on Thursday 27 Nov 2014 (Local Time) from KJAN Reporting Station
Clear Clear  
Wind Chill: 40°   Ceiling: Unl
Heat Index: 45°   Visibility: 10mi
Dew Point: 31°   Wind: 9mph
Humidity: 58%   Direction: 350°N
Pressure: 30.47"   Gusts: NA
Location:  32.27°N, 89.6°W
Report Text: KJAN 272254Z 35008KT 10SM CLR 07/M01 A3047 RMK AO2 SLP318 T00721006
Loading
Personal Weather Stations






























Interactive Weather Map New forecast layout! Learn more

10-Day Weather Forecast

Advertisements
Track Severe Weather on mobile